Time;durP1;ratioP1;P1;durP2;ratioP2;P2;SDS_P1;SDS_P2;PMS_P1;PMS_P2;Temp;Humidity;BMP_temperature;BMP_pressure;BME280_temperature;BME280_humidity;BME280_pressure;Samples;Min_cycle;Max_cycle;Signal;HPM_P1;HPM_P2
2022/05/29 00:00:47;;;;;;;14.25;5.00;;;9.50;99.90;;;;;;5069727;28;20040;-63
2022/05/29 00:03:13;;;;;;;8.48;4.38;;;9.40;99.90;;;;;;5081022;28;20039;-64
2022/05/29 00:05:40;;;;;;;15.65;4.18;;;9.40;99.90;;;;;;5084329;28;20086;-64
2022/05/29 00:08:09;;;;;;;16.15;4.50;;;9.50;99.90;;;;;;5078005;28;20044;-64
2022/05/29 00:10:39;;;;;;;12.70;3.90;;;9.40;99.90;;;;;;5072154;28;20036;-64
2022/05/29 00:13:04;;;;;;;13.30;5.17;;;9.40;99.90;;;;;;5071736;28;20048;-64
2022/05/29 00:15:30;;;;;;;12.45;4.50;;;9.40;99.90;;;;;;5073181;28;20464;-64
2022/05/29 00:17:56;;;;;;;11.88;4.45;;;9.40;99.90;;;;;;5071014;28;20123;-64
2022/05/29 00:20:21;;;;;;;16.35;4.72;;;9.40;99.90;;;;;;5069307;28;20393;-64
2022/05/29 00:22:47;;;;;;;13.30;5.53;;;9.40;99.90;;;;;;5075815;28;20094;-63
2022/05/29 00:25:13;;;;;;;18.30;4.72;;;9.30;99.90;;;;;;5087137;28;20044;-64
2022/05/29 00:27:39;;;;;;;16.42;5.00;;;9.20;99.90;;;;;;5071340;28;20036;-64
2022/05/29 00:30:08;;;;;;;11.07;4.82;;;9.20;99.90;;;;;;5081408;28;20050;-64
2022/05/29 00:32:33;;;;;;;11.20;4.55;;;9.10;99.90;;;;;;5077856;28;20044;-63
2022/05/29 00:34:59;;;;;;;17.92;5.30;;;9.10;99.90;;;;;;5070896;28;20036;-64
2022/05/29 00:37:25;;;;;;;13.13;4.47;;;9.00;99.90;;;;;;5072535;28;20036;-63
2022/05/29 00:39:53;;;;;;;19.52;4.70;;;9.00;99.90;;;;;;5071531;28;20036;-64
2022/05/29 00:42:22;;;;;;;20.10;5.10;;;9.00;99.90;;;;;;5087466;28;20048;-63
2022/05/29 00:44:49;;;;;;;13.25;4.68;;;9.10;99.90;;;;;;5080592;28;20384;-64
2022/05/29 00:47:20;;;;;;;15.93;4.82;;;9.00;99.90;;;;;;5083773;28;20090;-64
2022/05/29 00:49:49;;;;;;;21.25;5.78;;;9.00;99.90;;;;;;5078005;28;20123;-64
2022/05/29 00:52:18;;;;;;;13.35;5.13;;;8.90;99.90;;;;;;5083828;28;20067;-63
2022/05/29 00:54:58;;;;;;;22.20;4.95;;;8.90;99.90;;;;;;5082349;28;20048;-64
2022/05/29 00:57:31;;;;;;;10.90;5.07;;;8.80;99.90;;;;;;5080153;28;20082;-63
2022/05/29 01:00:00;;;;;;;14.77;5.05;;;8.80;99.90;;;;;;5071955;28;20032;-63
2022/05/29 01:02:26;;;;;;;20.58;6.03;;;8.90;99.90;;;;;;5071640;28;20151;-63
2022/05/29 01:04:52;;;;;;;11.63;4.28;;;8.90;99.90;;;;;;5078430;28;20045;-63
2022/05/29 01:07:20;;;;;;;16.15;4.35;;;9.00;99.90;;;;;;5080266;28;20040;-63
2022/05/29 01:09:48;;;;;;;15.95;4.03;;;9.00;99.90;;;;;;5081876;28;20042;-63
2022/05/29 01:12:31;;;;;;;11.32;4.47;;;9.10;99.90;;;;;;5083085;28;20032;-63
2022/05/29 01:15:20;;;;;;;10.70;4.03;;;9.10;99.90;;;;;;5075643;28;20036;-64
2022/05/29 01:18:02;;;;;;;12.38;4.53;;;9.00;99.90;;;;;;5070794;28;20380;-64
2022/05/29 01:20:50;;;;;;;13.65;4.20;;;9.00;99.90;;;;;;5078588;28;20041;-65
2022/05/29 01:24:00;;;;;;;17.42;4.50;;;9.10;99.90;;;;;;5084095;28;20120;-64
2022/05/29 01:26:58;;;;;;;14.10;4.15;;;9.00;99.90;;;;;;5074396;28;20105;-64
2022/05/29 01:29:39;;;;;;;10.35;4.13;;;9.00;99.90;;;;;;5070931;28;20127;-64
2022/05/29 01:32:13;;;;;;;13.00;4.25;;;8.90;99.90;;;;;;5078267;28;20051;-63
2022/05/29 01:34:46;;;;;;;9.13;4.55;;;8.80;99.90;;;;;;5080234;28;21110;-64
2022/05/29 01:37:26;;;;;;;12.30;4.65;;;8.80;99.90;;;;;;5086236;28;20048;-64
2022/05/29 01:40:09;;;;;;;9.75;4.15;;;8.80;99.90;;;;;;5084522;28;20048;-63
2022/05/29 01:42:44;;;;;;;10.70;3.85;;;8.90;99.90;;;;;;5086473;28;20063;-64
2022/05/29 01:45:34;;;;;;;21.75;4.95;;;8.80;99.90;;;;;;5076902;28;20044;-64
2022/05/29 01:48:15;;;;;;;14.18;4.32;;;8.80;99.90;;;;;;5079228;28;20127;-63
2022/05/29 01:50:48;;;;;;;19.13;4.35;;;8.80;99.90;;;;;;5069471;28;20082;-63
2022/05/29 01:53:18;;;;;;;11.02;3.85;;;8.80;99.90;;;;;;5078594;28;20036;-64
2022/05/29 01:55:51;;;;;;;14.25;4.57;;;8.80;99.90;;;;;;5072463;28;20047;-63
2022/05/29 01:58:22;;;;;;;11.38;4.22;;;8.90;99.90;;;;;;5070725;28;20044;-63
2022/05/29 02:00:49;;;;;;;12.68;4.18;;;8.80;99.90;;;;;;5071835;28;20484;-63
2022/05/29 02:03:20;;;;;;;18.63;5.10;;;8.80;99.90;;;;;;5072502;28;20045;-64
2022/05/29 02:05:51;;;;;;;13.32;4.68;;;8.80;99.90;;;;;;5073366;28;20410;-64
2022/05/29 02:08:54;;;;;;;12.60;4.20;;;8.80;99.90;;;;;;5069456;28;20069;-64
2022/05/29 02:11:23;;;;;;;13.85;4.25;;;8.80;99.90;;;;;;5064928;28;20187;-64
2022/05/29 02:13:53;;;;;;;12.88;4.40;;;8.80;99.90;;;;;;5070934;28;20456;-64
2022/05/29 02:16:22;;;;;;;15.60;4.30;;;8.80;99.90;;;;;;5071186;28;20098;-65
2022/05/29 02:18:59;;;;;;;15.32;4.03;;;8.80;99.90;;;;;;5069169;28;20044;-64
2022/05/29 02:21:30;;;;;;;13.73;4.55;;;8.70;99.90;;;;;;5083242;28;20035;-64
2022/05/29 02:24:01;;;;;;;13.77;4.15;;;8.80;99.90;;;;;;5073775;28;20406;-64
2022/05/29 02:26:31;;;;;;;10.02;3.88;;;8.70;99.90;;;;;;5081475;28;20036;-63
2022/05/29 02:29:03;;;;;;;13.82;4.15;;;8.60;99.90;;;;;;5076893;28;20040;-64
2022/05/29 02:31:37;;;;;;;14.27;4.40;;;8.70;99.90;;;;;;5082710;28;20039;-64
2022/05/29 02:34:16;;;;;;;11.60;4.30;;;8.70;99.90;;;;;;5067955;28;20051;-63
2022/05/29 02:36:52;;;;;;;15.20;4.53;;;8.80;99.90;;;;;;5069138;28;20067;-64
2022/05/29 02:39:42;;;;;;;13.80;4.15;;;8.70;99.90;;;;;;5068997;28;20032;-64
2022/05/29 02:42:14;;;;;;;11.60;3.97;;;8.70;99.90;;;;;;5073403;28;20496;-64
2022/05/29 02:45:02;;;;;;;8.65;3.75;;;8.70;99.90;;;;;;5072389;28;20040;-65
2022/05/29 02:47:46;;;;;;;14.85;4.88;;;8.70;99.90;;;;;;5079668;28;20063;-64
2022/05/29 02:50:50;;;;;;;13.18;4.20;;;8.60;99.90;;;;;;5075494;28;20146;-64
2022/05/29 02:53:16;;;;;;;17.08;4.25;;;8.60;99.90;;;;;;5079850;28;20532;-64
2022/05/29 02:55:43;;;;;;;9.27;3.85;;;8.70;99.90;;;;;;5071314;28;20482;-64
2022/05/29 02:58:23;;;;;;;12.43;4.18;;;8.80;99.90;;;;;;5071294;28;20101;-64
2022/05/29 03:01:07;;;;;;;10.40;4.15;;;8.70;99.90;;;;;;5067441;28;20041;-64
2022/05/29 03:03:58;;;;;;;10.75;4.25;;;8.70;99.90;;;;;;5072263;28;20415;-64
2022/05/29 03:07:01;;;;;;;13.07;4.88;;;8.60;99.90;;;;;;5039463;28;20060;-64
2022/05/29 03:09:43;;;;;;;14.45;4.40;;;8.60;99.90;;;;;;5090548;28;20443;-64
2022/05/29 03:12:31;;;;;;;13.35;4.75;;;8.80;99.90;;;;;;5070753;28;20036;-64
2022/05/29 03:15:20;;;;;;;14.18;4.00;;;8.80;99.90;;;;;;5073116;28;20383;-64
2022/05/29 03:17:58;;;;;;;20.30;5.00;;;8.80;99.90;;;;;;5066953;28;20128;-65
2022/05/29 03:20:45;;;;;;;11.93;4.47;;;8.80;99.90;;;;;;5069190;28;20037;-64
2022/05/29 03:23:36;;;;;;;19.85;5.05;;;8.80;99.90;;;;;;5076676;28;20036;-64
2022/05/29 03:26:13;;;;;;;12.32;4.50;;;8.80;99.90;;;;;;5077969;28;20068;-64
2022/05/29 03:28:45;;;;;;;19.63;5.28;;;8.90;99.90;;;;;;5070787;28;20131;-64
2022/05/29 03:31:15;;;;;;;18.55;4.95;;;8.80;99.90;;;;;;5074186;28;20127;-64
2022/05/29 03:33:44;;;;;;;11.57;4.60;;;8.80;99.90;;;;;;5066567;28;20062;-63
2022/05/29 03:36:16;;;;;;;13.75;4.47;;;9.00;99.90;;;;;;5069510;28;20477;-64
2022/05/29 03:38:46;;;;;;;14.10;4.70;;;9.00;99.90;;;;;;5069764;28;20040;-64
2022/05/29 03:41:21;;;;;;;14.80;4.78;;;8.90;99.90;;;;;;5072841;28;20520;-64
2022/05/29 03:43:47;;;;;;;12.90;5.28;;;9.00;99.90;;;;;;5077878;28;20401;-63
2022/05/29 03:46:12;;;;;;;13.07;4.50;;;9.00;99.90;;;;;;5074295;28;20044;-63
2022/05/29 03:48:39;;;;;;;19.92;4.47;;;8.90;99.90;;;;;;5065451;28;20048;-63
2022/05/29 03:51:08;;;;;;;16.48;4.40;;;8.90;99.90;;;;;;5073839;28;20040;-63
2022/05/29 03:53:34;;;;;;;14.98;4.82;;;8.90;99.90;;;;;;5081139;28;20093;-63
2022/05/29 03:56:00;;;;;;;13.07;4.75;;;9.00;99.90;;;;;;5071417;28;20127;-63
2022/05/29 03:58:26;;;;;;;13.07;4.15;;;8.90;99.90;;;;;;5074860;28;20147;-63
2022/05/29 04:00:51;;;;;;;13.82;4.60;;;9.10;99.90;;;;;;5073800;28;20036;-63
2022/05/29 04:03:17;;;;;;;13.43;4.43;;;9.00;99.90;;;;;;5069252;28;20044;-63
2022/05/29 04:05:43;;;;;;;14.88;4.82;;;9.00;99.90;;;;;;5075374;28;20037;-63
2022/05/29 04:13:40;;;;;;;14.75;4.15;;;9.20;99.90;;;;;;5089624;28;20048;-63
2022/05/29 04:16:06;;;;;;;10.02;3.67;;;9.00;99.90;;;;;;5086687;28;20394;-63
2022/05/29 04:18:32;;;;;;;10.85;3.97;;;9.20;99.90;;;;;;5079586;28;20042;-63
2022/05/29 04:20:57;;;;;;;13.77;4.15;;;9.20;99.90;;;;;;5079987;28;20438;-63
2022/05/29 04:23:23;;;;;;;15.38;4.43;;;9.20;99.90;;;;;;5084203;28;20082;-63
2022/05/29 04:25:49;;;;;;;17.23;4.05;;;9.20;99.90;;;;;;5078436;28;20476;-63
2022/05/29 04:28:15;;;;;;;13.82;4.05;;;9.10;99.90;;;;;;5083345;28;20541;-63
2022/05/29 04:30:41;;;;;;;12.45;4.07;;;9.10;99.90;;;;;;5073735;28;20040;-63
2022/05/29 04:33:06;;;;;;;10.55;3.72;;;9.10;99.90;;;;;;5084773;28;20036;-63
2022/05/29 04:35:44;;;;;;;11.85;4.15;;;9.10;99.90;;;;;;5068461;28;20498;-63
2022/05/29 04:38:11;;;;;;;12.30;3.50;;;9.10;99.90;;;;;;5072939;28;20024;-63
2022/05/29 04:40:38;;;;;;;13.00;4.40;;;9.10;99.90;;;;;;5074218;28;20032;-63
2022/05/29 04:43:04;;;;;;;8.60;3.40;;;9.10;99.90;;;;;;5086704;28;20062;-63
2022/05/29 04:45:31;;;;;;;15.48;4.00;;;9.20;99.90;;;;;;5087179;28;20044;-63
2022/05/29 04:47:56;;;;;;;7.45;3.80;;;9.20;99.90;;;;;;5080588;28;20056;-63
2022/05/29 04:50:22;;;;;;;12.05;3.90;;;9.10;99.90;;;;;;5077207;28;20087;-63
2022/05/29 04:52:50;;;;;;;7.95;2.95;;;9.10;99.90;;;;;;5072805;28;20040;-63
2022/05/29 04:55:16;;;;;;;10.77;3.75;;;9.20;99.90;;;;;;5072707;28;20137;-63
2022/05/29 04:57:41;;;;;;;15.95;3.75;;;9.30;99.90;;;;;;5080389;28;20464;-62
2022/05/29 05:00:08;;;;;;;9.50;3.53;;;9.30;99.90;;;;;;5072467;28;20036;-63
2022/05/29 05:02:33;;;;;;;11.88;3.28;;;9.30;99.90;;;;;;5080531;28;20071;-63
2022/05/29 05:04:59;;;;;;;10.88;3.60;;;9.30;99.90;;;;;;5069188;28;20079;-63
2022/05/29 05:07:24;;;;;;;14.00;3.78;;;9.30;99.90;;;;;;5075458;28;20044;-63
2022/05/29 05:09:50;;;;;;;10.10;3.15;;;9.40;99.90;;;;;;5074111;28;20044;-63
2022/05/29 05:12:16;;;;;;;12.27;3.33;;;9.40;99.90;;;;;;5070439;28;20048;-63
2022/05/29 05:14:42;;;;;;;16.88;3.50;;;9.30;99.90;;;;;;5075430;28;20043;-63
2022/05/29 05:17:08;;;;;;;11.52;3.55;;;9.40;99.90;;;;;;5078439;28;20480;-63
2022/05/29 05:19:33;;;;;;;13.20;3.20;;;9.30;99.90;;;;;;5065911;28;20040;-63
2022/05/29 05:22:01;;;;;;;11.25;2.92;;;9.40;99.90;;;;;;5084043;28;20040;-63
2022/05/29 05:24:27;;;;;;;14.07;3.45;;;9.40;99.90;;;;;;5086656;28;20050;-63
2022/05/29 05:26:52;;;;;;;10.48;3.65;;;9.30;99.90;;;;;;5080576;28;20115;-63
2022/05/29 05:29:18;;;;;;;10.30;3.05;;;9.30;99.90;;;;;;5072804;28;20115;-63
2022/05/29 05:31:44;;;;;;;13.32;3.00;;;9.40;99.90;;;;;;5079828;28;20036;-62
2022/05/29 05:34:09;;;;;;;10.52;2.90;;;9.40;99.90;;;;;;5077891;28;20044;-62
2022/05/29 05:36:35;;;;;;;7.00;2.72;;;9.30;99.90;;;;;;5085481;28;20090;-62
2022/05/29 05:39:01;;;;;;;12.65;2.40;;;9.40;99.90;;;;;;5072047;28;20036;-63
2022/05/29 05:41:26;;;;;;;11.93;3.08;;;9.50;99.90;;;;;;5071668;28;20450;-63
2022/05/29 05:43:52;;;;;;;12.98;3.08;;;9.50;99.90;;;;;;5072100;28;20075;-63
2022/05/29 05:46:18;;;;;;;8.48;2.67;;;9.50;99.90;;;;;;5088791;28;20036;-63
2022/05/29 05:48:45;;;;;;;9.90;2.70;;;9.50;99.90;;;;;;5073679;28;20381;-63
2022/05/29 05:51:12;;;;;;;15.52;3.33;;;9.70;99.90;;;;;;5075146;28;20040;-63
2022/05/29 05:53:40;;;;;;;14.02;3.08;;;9.60;99.90;;;;;;5074724;28;20032;-62
2022/05/29 05:56:17;;;;;;;13.68;3.28;;;9.70;99.90;;;;;;5082807;28;20375;-63
2022/05/29 05:58:43;;;;;;;12.95;3.20;;;9.70;99.90;;;;;;5080879;28;20040;-63
2022/05/29 06:01:12;;;;;;;10.13;3.08;;;9.80;99.90;;;;;;5082944;28;20039;-63
2022/05/29 06:03:38;;;;;;;11.70;3.33;;;9.90;99.90;;;;;;5072727;28;20066;-63
2022/05/29 06:06:04;;;;;;;13.90;2.78;;;10.00;99.90;;;;;;5077742;28;20049;-63
2022/05/29 06:08:30;;;;;;;15.00;3.03;;;10.00;99.90;;;;;;5080673;28;20043;-63
2022/05/29 06:10:56;;;;;;;11.95;2.33;;;9.90;99.90;;;;;;5074173;28;20044;-63
2022/05/29 06:13:22;;;;;;;10.15;2.80;;;9.90;99.90;;;;;;5078735;28;20383;-63
2022/05/29 06:15:48;;;;;;;11.32;3.30;;;9.90;99.90;;;;;;5073486;28;20040;-63
2022/05/29 06:18:14;;;;;;;9.93;2.53;;;9.80;99.90;;;;;;5079838;28;20048;-63
2022/05/29 06:20:41;;;;;;;14.15;3.40;;;9.90;99.90;;;;;;5081903;28;20102;-63
2022/05/29 06:23:07;;;;;;;13.32;3.65;;;9.80;99.90;;;;;;5080804;28;20044;-63
2022/05/29 06:25:33;;;;;;;12.63;3.17;;;9.80;99.90;;;;;;5076410;28;20066;-63
2022/05/29 06:28:00;;;;;;;11.73;3.15;;;9.80;99.90;;;;;;5081839;28;20036;-63
2022/05/29 06:30:28;;;;;;;14.57;2.97;;;9.80;99.90;;;;;;5073903;28;20040;-63
2022/05/29 06:32:54;;;;;;;11.70;2.90;;;9.80;99.90;;;;;;5080316;28;20048;-63
2022/05/29 06:35:20;;;;;;;13.98;3.17;;;9.90;99.90;;;;;;5069709;28;20380;-62
2022/05/29 06:37:46;;;;;;;14.27;3.25;;;9.90;99.90;;;;;;5075397;28;20044;-63
2022/05/29 06:40:13;;;;;;;13.15;2.72;;;10.00;99.90;;;;;;5084848;28;20526;-63
2022/05/29 06:42:38;;;;;;;11.85;2.65;;;10.10;99.90;;;;;;5075061;28;20079;-62
2022/05/29 06:45:06;;;;;;;10.35;2.67;;;10.20;99.90;;;;;;5072575;28;20071;-62
2022/05/29 06:47:32;;;;;;;14.20;2.83;;;10.20;99.90;;;;;;5076895;28;20093;-62
2022/05/29 06:49:59;;;;;;;13.57;2.90;;;10.30;99.90;;;;;;5076387;28;20040;-62
2022/05/29 06:52:29;;;;;;;17.80;3.40;;;10.30;99.90;;;;;;5072357;28;20048;-62
2022/05/29 06:54:55;;;;;;;10.65;2.83;;;10.20;99.90;;;;;;5079089;28;20035;-62
2022/05/29 06:57:36;;;;;;;11.30;2.75;;;10.30;99.90;;;;;;5082363;28;20105;-62
2022/05/29 07:08:01;;;;;;;10.43;3.30;;;10.40;99.90;;;;;;5086058;28;20044;-63
2022/05/29 07:10:32;;;;;;;12.32;2.70;;;10.40;99.90;;;;;;5081817;28;20408;-63
2022/05/29 07:12:59;;;;;;;10.30;2.50;;;10.40;99.90;;;;;;5072685;28;20075;-63
2022/05/29 07:15:24;;;;;;;9.68;2.83;;;10.40;99.90;;;;;;5082986;28;20388;-62
2022/05/29 07:17:50;;;;;;;13.27;2.83;;;10.40;99.90;;;;;;5072622;28;20033;-63
2022/05/29 07:20:16;;;;;;;10.95;3.35;;;10.50;99.90;;;;;;5071422;28;20075;-63
2022/05/29 07:22:43;;;;;;;12.95;2.88;;;10.50;99.90;;;;;;5092069;28;20040;-63
2022/05/29 07:25:11;;;;;;;21.75;3.45;;;10.60;99.90;;;;;;5092232;28;20079;-63
2022/05/29 07:27:38;;;;;;;11.00;2.50;;;10.60;99.90;;;;;;5082401;28;20032;-63
2022/05/29 07:30:05;;;;;;;14.60;2.83;;;10.50;99.90;;;;;;5075335;28;20044;-62
2022/05/29 07:32:31;;;;;;;14.10;2.85;;;10.40;99.90;;;;;;5083156;28;20400;-62
2022/05/29 07:34:57;;;;;;;12.70;3.00;;;10.50;99.90;;;;;;5067396;28;20043;-63
2022/05/29 07:37:23;;;;;;;10.60;2.80;;;10.40;99.90;;;;;;5075344;28;20040;-63
2022/05/29 07:39:51;;;;;;;14.13;2.92;;;10.40;99.90;;;;;;5081177;28;20114;-63
2022/05/29 07:45:22;;;;;;;9.48;2.20;;;10.40;99.90;;;;;;5011657;28;20049;-63
2022/05/29 07:47:48;;;;;;;11.55;2.20;;;10.50;99.90;;;;;;5013071;28;20516;-63
2022/05/29 07:50:16;;;;;;;6.70;2.13;;;10.50;99.90;;;;;;5033852;28;20053;-63
2022/05/29 07:52:42;;;;;;;12.02;2.47;;;10.60;99.90;;;;;;5071186;28;20044;-64
2022/05/29 07:55:08;;;;;;;11.63;2.63;;;10.60;99.90;;;;;;5073588;28;20044;-64
2022/05/29 07:57:34;;;;;;;13.63;2.70;;;10.70;99.90;;;;;;5076357;28;20051;-63
2022/05/29 08:00:00;;;;;;;7.28;1.80;;;10.80;99.90;;;;;;5074468;28;20044;-64
2022/05/29 08:02:25;;;;;;;7.35;1.83;;;10.80;99.90;;;;;;5065478;28;20063;-63
2022/05/29 08:04:51;;;;;;;7.25;1.83;;;10.80;99.90;;;;;;5066328;28;20047;-63
2022/05/29 08:07:19;;;;;;;7.78;1.77;;;10.80;99.90;;;;;;5074656;28;20446;-65
2022/05/29 08:09:45;;;;;;;8.77;1.80;;;10.90;99.90;;;;;;5075037;28;20396;-64
2022/05/29 08:12:11;;;;;;;5.38;1.60;;;11.00;99.90;;;;;;5077736;28;20086;-65
2022/05/29 08:14:36;;;;;;;6.20;1.42;;;11.00;99.90;;;;;;5090032;28;20039;-65
2022/05/29 08:17:02;;;;;;;12.48;2.17;;;10.90;99.90;;;;;;5087608;28;20063;-64
2022/05/29 08:19:28;;;;;;;6.40;1.70;;;10.80;99.90;;;;;;5072857;28;20036;-64
2022/05/29 08:21:53;;;;;;;6.65;1.83;;;10.90;99.90;;;;;;5071307;28;20044;-64
2022/05/29 08:32:34;;;;;;;7.43;1.80;;;11.20;99.90;;;;;;5082018;28;20056;-64
2022/05/29 08:35:00;;;;;;;4.80;1.27;;;11.40;99.90;;;;;;5084363;28;20036;-64
2022/05/29 08:37:26;;;;;;;8.52;1.95;;;11.50;99.90;;;;;;5086699;28;20037;-64
2022/05/29 08:39:52;;;;;;;8.10;2.30;;;11.70;99.90;;;;;;5085849;28;20571;-65
2022/05/29 08:42:19;;;;;;;7.75;1.55;;;11.90;99.90;;;;;;5085391;28;20100;-64
2022/05/29 08:44:50;;;;;;;10.25;1.58;;;12.10;99.90;;;;;;5074655;28;20048;-64
2022/05/29 08:47:27;;;;;;;6.72;1.88;;;12.20;99.90;;;;;;5089935;28;20123;-64
2022/05/29 08:49:54;;;;;;;5.05;1.15;;;12.30;99.90;;;;;;5078698;28;20041;-64
2022/05/29 08:52:45;;;;;;;4.90;1.08;;;12.20;99.90;;;;;;5091460;28;20618;-64
2022/05/29 08:55:17;;;;;;;5.50;1.48;;;12.00;99.90;;;;;;5092111;28;20039;-64
2022/05/29 08:57:53;;;;;;;7.35;1.30;;;11.80;99.90;;;;;;5092681;28;20036;-64
2022/05/29 09:00:37;;;;;;;5.03;1.02;;;11.80;99.90;;;;;;5083575;28;20468;-64
2022/05/29 09:03:21;;;;;;;4.82;1.13;;;11.70;99.90;;;;;;5071696;28;20462;-63
2022/05/29 09:05:55;;;;;;;4.18;1.00;;;11.70;99.90;;;;;;5070586;28;20070;-65
2022/05/29 09:08:36;;;;;;;5.72;1.27;;;11.70;99.90;;;;;;5074827;28;20036;-64
2022/05/29 09:11:08;;;;;;;5.03;0.80;;;11.70;99.90;;;;;;5093021;28;20036;-64
2022/05/29 09:13:39;;;;;;;4.57;0.98;;;11.70;99.90;;;;;;5083154;28;20051;-64
2022/05/29 09:16:12;;;;;;;5.50;1.10;;;11.70;99.90;;;;;;5077854;28;20468;-64
2022/05/29 09:18:41;;;;;;;4.00;0.82;;;11.70;99.90;;;;;;5076667;28;20066;-65
2022/05/29 09:21:18;;;;;;;4.22;1.13;;;11.60;99.90;;;;;;5081435;28;20349;-64
2022/05/29 09:24:01;;;;;;;5.97;1.35;;;11.60;99.90;;;;;;5085660;28;20055;-64
2022/05/29 09:26:34;;;;;;;4.72;1.23;;;11.70;99.90;;;;;;5073585;28;20032;-64
2022/05/29 09:28:59;;;;;;;7.20;1.55;;;11.90;99.90;;;;;;5078320;28;20052;-64
2022/05/29 09:31:25;;;;;;;5.28;1.55;;;12.00;99.90;;;;;;5074725;28;20131;-64
2022/05/29 09:33:51;;;;;;;5.32;1.27;;;12.10;99.90;;;;;;5071893;28;20048;-64
2022/05/29 09:36:37;;;;;;;4.07;1.10;;;12.20;99.90;;;;;;5083413;28;20044;-64
2022/05/29 09:39:20;;;;;;;6.30;1.38;;;12.20;99.90;;;;;;5073634;28;20037;-64
2022/05/29 09:42:24;;;;;;;5.65;1.42;;;12.20;99.90;;;;;;5087039;28;20047;-64
2022/05/29 09:45:12;;;;;;;5.00;1.35;;;12.20;99.90;;;;;;5073689;28;20052;-64
2022/05/29 09:50:38;;;;;;;6.90;1.50;;;12.70;99.90;;;;;;5077307;28;20041;-64
2022/05/29 09:53:12;;;;;;;5.55;1.20;;;13.00;99.90;;;;;;5072988;28;20052;-64
2022/05/29 09:55:39;;;;;;;6.28;1.30;;;13.10;99.90;;;;;;5073380;28;20040;-64
2022/05/29 09:58:13;;;;;;;7.22;1.77;;;13.30;99.90;;;;;;5086152;28;20040;-64
2022/05/29 10:01:02;;;;;;;7.07;1.55;;;13.60;99.90;;;;;;5077892;28;20028;-64
2022/05/29 10:03:43;;;;;;;4.87;1.13;;;13.70;99.90;;;;;;5073313;28;20110;-64
2022/05/29 10:06:32;;;;;;;4.32;1.00;;;13.80;96.30;;;;;;5075345;28;20298;-64
2022/05/29 10:09:13;;;;;;;4.30;1.10;;;13.80;99.90;;;;;;5076089;28;20044;-64
2022/05/29 10:11:41;;;;;;;4.22;1.20;;;13.80;98.20;;;;;;5076113;28;20514;-64
2022/05/29 10:14:40;;;;;;;9.27;1.70;;;13.80;99.90;;;;;;5076868;28;20028;-64
2022/05/29 10:17:16;;;;;;;5.03;0.88;;;13.70;99.00;;;;;;5071638;28;20087;-64
2022/05/29 10:19:44;;;;;;;6.35;1.33;;;13.70;99.90;;;;;;5071311;28;21928;-64
2022/05/29 10:22:19;;;;;;;4.22;1.42;;;13.60;99.90;;;;;;5074303;28;20023;-64
2022/05/29 10:24:45;;;;;;;6.70;1.40;;;13.50;99.90;;;;;;5077731;28;20032;-65
2022/05/29 10:27:29;;;;;;;6.20;1.48;;;13.40;99.90;;;;;;5073475;28;20044;-64
2022/05/29 10:30:02;;;;;;;11.05;2.00;;;13.30;99.90;;;;;;5075843;28;20498;-65
2022/05/29 10:32:32;;;;;;;6.38;1.80;;;13.30;99.90;;;;;;5080797;28;20539;-64
2022/05/29 10:35:17;;;;;;;4.57;1.30;;;13.30;99.90;;;;;;5072730;28;20071;-64
2022/05/29 10:37:44;;;;;;;4.05;1.35;;;13.30;99.90;;;;;;5080678;28;20094;-64
2022/05/29 10:40:18;;;;;;;8.07;1.20;;;13.30;99.90;;;;;;5071771;28;20028;-65
2022/05/29 10:42:47;;;;;;;4.30;1.33;;;13.50;99.90;;;;;;5072261;28;20064;-64
2022/05/29 10:45:19;;;;;;;4.50;1.40;;;13.60;99.90;;;;;;5070753;28;20376;-64
2022/05/29 10:48:03;;;;;;;5.20;1.40;;;13.70;99.90;;;;;;5077723;28;20036;-64
2022/05/29 10:50:38;;;;;;;7.43;0.95;;;13.60;99.90;;;;;;5070475;28;20503;-65
2022/05/29 10:53:18;;;;;;;5.53;1.38;;;13.60;99.90;;;;;;5071046;28;20048;-64
2022/05/29 10:56:09;;;;;;;6.05;1.88;;;13.60;99.90;;;;;;5071090;28;20491;-64
2022/05/29 10:58:59;;;;;;;8.25;1.23;;;13.50;98.90;;;;;;5074574;28;20047;-64
2022/05/29 11:05:02;;;;;;;7.32;1.45;;;13.50;99.90;;;;;;5082431;28;20412;-64
2022/05/29 11:07:49;;;;;;;5.45;1.45;;;13.40;99.70;;;;;;5080020;28;20043;-65
2022/05/29 11:10:29;;;;;;;9.70;1.73;;;13.20;97.30;;;;;;5091133;28;20044;-65
2022/05/29 11:13:04;;;;;;;6.90;1.30;;;13.10;98.10;;;;;;5077065;28;20055;-64
2022/05/29 11:15:51;;;;;;;3.75;0.98;;;13.00;99.40;;;;;;5070509;28;20045;-64
2022/05/29 11:18:34;;;;;;;4.70;1.25;;;13.00;98.20;;;;;;5070254;28;20063;-64
2022/05/29 11:21:08;;;;;;;8.43;1.30;;;13.00;98.70;;;;;;5070154;28;20392;-65
2022/05/29 11:24:18;;;;;;;5.47;1.10;;;13.10;98.30;;;;;;5079314;28;20138;-64
2022/05/29 11:27:17;;;;;;;6.63;1.33;;;13.20;96.70;;;;;;5072599;28;20060;-64
2022/05/29 11:30:21;;;;;;;6.68;1.42;;;13.40;96.20;;;;;;5067936;28;20044;-64
2022/05/29 11:33:01;;;;;;;4.00;1.13;;;13.60;94.30;;;;;;5071715;28;20079;-65
2022/05/29 11:36:06;;;;;;;6.82;1.75;;;13.90;96.40;;;;;;5067949;28;20037;-64
2022/05/29 11:38:50;;;;;;;4.97;1.40;;;14.10;94.30;;;;;;5078331;28;20036;-64
2022/05/29 11:41:45;;;;;;;3.22;1.00;;;14.10;95.60;;;;;;5074258;28;20039;-64
2022/05/29 11:44:31;;;;;;;8.85;1.45;;;14.00;93.40;;;;;;5069567;28;20056;-64
2022/05/29 11:52:57;;;;;;;4.78;1.02;;;13.20;95.40;;;;;;5072358;28;20043;-64
2022/05/29 11:55:27;;;;;;;7.45;1.42;;;13.10;95.30;;;;;;5079184;28;20032;-63
2022/05/29 11:58:02;;;;;;;6.68;1.20;;;13.00;96.50;;;;;;5080300;28;20124;-64
2022/05/29 12:00:39;;;;;;;3.90;1.23;;;13.10;95.70;;;;;;5073144;28;20044;-64
2022/05/29 12:03:23;;;;;;;3.97;1.15;;;13.30;95.60;;;;;;5072292;28;20070;-65
2022/05/29 12:05:57;;;;;;;5.72;1.42;;;13.40;96.70;;;;;;5079044;28;20119;-64
2022/05/29 12:08:51;;;;;;;5.55;1.35;;;13.60;96.60;;;;;;5079985;28;20048;-64
2022/05/29 12:11:29;;;;;;;4.95;1.02;;;14.00;95.50;;;;;;5078506;28;20044;-64
2022/05/29 12:13:57;;;;;;;5.20;1.25;;;14.20;95.50;;;;;;5080097;28;20664;-64
2022/05/29 12:16:28;;;;;;;7.78;1.40;;;14.40;94.80;;;;;;5085920;28;20474;-64
2022/05/29 12:18:57;;;;;;;7.32;1.50;;;14.50;94.10;;;;;;5087061;28;20078;-64
2022/05/29 12:21:35;;;;;;;4.55;1.17;;;14.70;93.70;;;;;;5074103;28;20372;-64
2022/05/29 12:24:02;;;;;;;7.00;1.38;;;14.70;92.20;;;;;;5079770;28;20036;-64
2022/05/29 12:26:58;;;;;;;5.70;1.48;;;15.00;92.50;;;;;;5082941;28;20500;-64
2022/05/29 12:29:31;;;;;;;5.10;1.08;;;15.20;92.10;;;;;;5083929;28;20044;-65
2022/05/29 12:32:05;;;;;;;5.50;1.75;;;15.20;91.20;;;;;;5072773;28;20049;-64
2022/05/29 12:34:43;;;;;;;5.50;1.23;;;15.20;90.70;;;;;;5088576;28;20121;-64
2022/05/29 12:37:33;;;;;;;7.30;1.30;;;15.10;90.40;;;;;;5076547;28;20074;-64
2022/05/29 12:40:36;;;;;;;6.28;1.30;;;15.00;90.20;;;;;;5087813;28;20107;-64
2022/05/29 12:43:37;;;;;;;5.38;1.48;;;14.80;90.70;;;;;;5074848;28;20091;-64
2022/05/29 12:46:11;;;;;;;4.95;1.30;;;14.60;90.50;;;;;;5089707;28;20055;-64
2022/05/29 12:49:19;;;;;;;6.80;1.55;;;14.30;91.50;;;;;;5065832;28;20414;-64
2022/05/29 12:52:07;;;;;;;6.05;1.25;;;14.10;90.70;;;;;;5050848;28;20072;-64
2022/05/29 12:54:53;;;;;;;5.53;1.40;;;13.70;92.00;;;;;;5071642;28;20045;-64
2022/05/29 12:57:42;;;;;;;8.10;1.83;;;13.60;93.70;;;;;;5077629;28;20032;-64
2022/05/29 13:00:21;;;;;;;5.95;1.33;;;13.10;94.10;;;;;;5088664;28;20400;-64
2022/05/29 13:03:06;;;;;;;6.80;1.55;;;12.70;95.60;;;;;;5078800;28;20430;-64
2022/05/29 13:05:50;;;;;;;6.55;1.40;;;12.50;96.00;;;;;;5072925;28;20036;-64
2022/05/29 13:08:47;;;;;;;7.90;1.33;;;12.40;96.30;;;;;;5082451;28;20051;-64
2022/05/29 13:11:20;;;;;;;3.78;1.35;;;12.30;96.90;;;;;;5070743;28;20086;-64
2022/05/29 13:13:47;;;;;;;6.15;1.48;;;12.40;96.90;;;;;;5071211;28;20040;-64
2022/05/29 13:16:32;;;;;;;9.77;2.30;;;12.40;96.70;;;;;;5074167;28;20072;-64
2022/05/29 13:19:18;;;;;;;5.07;1.38;;;12.60;96.00;;;;;;5083012;28;20036;-64
2022/05/29 13:22:02;;;;;;;7.40;1.40;;;12.70;96.10;;;;;;5073666;28;20484;-64
2022/05/29 13:24:44;;;;;;;7.45;1.58;;;12.90;96.70;;;;;;5079744;28;20048;-64
2022/05/29 13:27:12;;;;;;;5.32;1.13;;;13.00;96.70;;;;;;5076610;28;20036;-64
2022/05/29 13:29:47;;;;;;;8.25;1.55;;;13.10;96.10;;;;;;5074796;28;20035;-64
2022/05/29 13:32:12;;;;;;;7.80;1.55;;;13.10;94.80;;;;;;5090159;28;20047;-65
2022/05/29 13:34:38;;;;;;;6.03;1.40;;;13.10;95.80;;;;;;5069662;28;20036;-64
2022/05/29 13:37:28;;;;;;;4.43;1.00;;;13.20;95.60;;;;;;5073283;28;20652;-64
2022/05/29 13:40:08;;;;;;;6.03;1.00;;;13.40;95.40;;;;;;5081010;28;20046;-64
2022/05/29 13:42:41;;;;;;;6.22;1.42;;;13.80;95.10;;;;;;5083523;28;20355;-64
2022/05/29 13:45:19;;;;;;;6.97;1.33;;;14.20;94.00;;;;;;5079934;28;20384;-64
2022/05/29 13:48:17;;;;;;;5.80;1.35;;;14.40;92.70;;;;;;5076385;28;20520;-64
2022/05/29 13:50:45;;;;;;;5.97;1.15;;;14.80;90.70;;;;;;5068799;28;20040;-64
2022/05/29 13:53:32;;;;;;;5.65;1.45;;;14.80;91.20;;;;;;5075927;28;20044;-64
2022/05/29 13:56:06;;;;;;;6.55;1.45;;;14.90;89.30;;;;;;5071881;28;20040;-64